createdAt,value
2018-04-23T00:01:33.645Z,12.40
2018-04-23T00:04:01.299Z,12.40
2018-04-23T00:06:28.947Z,12.30
2018-04-23T00:08:56.627Z,12.30
2018-04-23T00:11:25.062Z,12.10
2018-04-23T00:13:52.738Z,12.10
2018-04-23T00:16:20.397Z,12.10
2018-04-23T00:18:48.007Z,12.00
2018-04-23T00:21:16.408Z,11.90
2018-04-23T00:23:44.040Z,11.90
2018-04-23T00:26:11.672Z,11.90
2018-04-23T00:28:39.326Z,11.90
2018-04-23T00:31:06.943Z,11.90
2018-04-23T00:33:34.532Z,11.80
2018-04-23T00:36:02.214Z,11.90
2018-04-23T00:38:29.804Z,11.90
2018-04-23T00:40:58.192Z,12.00
2018-04-23T00:43:25.814Z,11.90
2018-04-23T00:45:53.482Z,12.00
2018-04-23T00:48:21.061Z,12.00
2018-04-23T00:50:49.464Z,12.00
2018-04-23T00:53:28.873Z,12.00
2018-04-23T00:55:57.300Z,11.90
2018-04-23T00:58:24.900Z,12.00
2018-04-23T01:00:52.491Z,11.90
2018-04-23T01:03:20.095Z,11.90
2018-04-23T01:05:47.789Z,11.90
2018-04-23T01:08:16.202Z,11.80
2018-04-23T01:10:43.878Z,11.80
2018-04-23T01:13:11.435Z,11.80
2018-04-23T01:15:39.070Z,11.70
2018-04-23T01:18:06.744Z,11.70
2018-04-23T01:20:34.391Z,11.70
2018-04-23T01:23:02.038Z,11.70
2018-04-23T01:25:29.778Z,11.60
2018-04-23T01:27:57.372Z,11.60
2018-04-23T01:30:25.024Z,11.50
2018-04-23T01:32:53.481Z,11.40
2018-04-23T01:35:21.178Z,11.40
2018-04-23T01:37:48.788Z,11.40
2018-04-23T01:40:16.414Z,11.30
2018-04-23T01:42:44.005Z,11.30
2018-04-23T01:45:11.632Z,11.30
2018-04-23T01:47:39.274Z,11.30
2018-04-23T01:50:06.889Z,11.30
2018-04-23T01:52:34.533Z,11.20
2018-04-23T01:55:02.372Z,11.20
2018-04-23T01:57:30.003Z,11.20
2018-04-23T01:59:58.422Z,11.20
2018-04-23T02:02:26.051Z,11.10
2018-04-23T02:04:54.415Z,11.10
2018-04-23T02:07:23.713Z,11.10
2018-04-23T02:09:52.073Z,11.10
2018-04-23T02:12:19.699Z,11.00
2018-04-23T02:14:47.330Z,11.10
2018-04-23T02:17:15.492Z,11.00
2018-04-23T02:19:43.141Z,11.00
2018-04-23T02:22:11.559Z,10.90
2018-04-23T02:24:39.170Z,11.00
2018-04-23T02:27:07.244Z,11.00
2018-04-23T02:29:34.862Z,11.00
2018-04-23T02:32:02.505Z,11.00
2018-04-23T02:34:30.150Z,11.00
2018-04-23T02:36:57.849Z,11.00
2018-04-23T02:39:25.542Z,11.00
2018-04-23T02:41:53.181Z,11.00
2018-04-23T02:44:21.451Z,11.00
2018-04-23T02:46:49.099Z,11.00
2018-04-23T02:49:16.716Z,11.00
2018-04-23T02:51:44.317Z,11.00
2018-04-23T02:54:12.006Z,11.00
2018-04-23T02:56:39.635Z,11.00
2018-04-23T02:59:07.251Z,11.10
2018-04-23T03:01:35.654Z,11.20
2018-04-23T03:04:03.267Z,11.10
2018-04-23T03:06:30.884Z,11.20
2018-04-23T03:08:58.532Z,11.20
2018-04-23T03:11:26.173Z,11.30
2018-04-23T03:13:54.632Z,11.30
2018-04-23T03:16:22.268Z,11.30
2018-04-23T03:18:49.857Z,11.40
2018-04-23T03:21:17.524Z,11.40
2018-04-23T03:23:45.111Z,11.40
2018-04-23T03:26:12.773Z,11.50
2018-04-23T03:28:40.371Z,11.50
2018-04-23T03:31:07.975Z,11.50
2018-04-23T03:33:35.618Z,11.60
2018-04-23T03:36:03.280Z,11.60
2018-04-23T03:38:30.974Z,11.70
2018-04-23T03:40:58.650Z,11.70
2018-04-23T03:43:26.314Z,11.80
2018-04-23T03:45:53.940Z,11.90
2018-04-23T03:48:21.579Z,12.00
2018-04-23T03:50:49.238Z,12.00
2018-04-23T03:53:16.883Z,12.10
2018-04-23T03:55:44.463Z,12.10
2018-04-23T03:58:12.057Z,12.10
2018-04-23T04:00:39.686Z,12.10
2018-04-23T04:03:07.296Z,12.10
2018-04-23T04:05:34.954Z,12.10
2018-04-23T04:08:02.611Z,12.10
2018-04-23T04:10:30.236Z,12.00
2018-04-23T04:13:09.795Z,12.00
2018-04-23T04:15:50.000Z,12.00
2018-04-23T04:18:38.474Z,11.90
2018-04-23T04:21:07.888Z,12.00
2018-04-23T04:23:36.305Z,12.00
2018-04-23T04:26:03.971Z,12.00
2018-04-23T04:28:32.469Z,12.00
2018-04-23T04:31:00.118Z,12.00
2018-04-23T04:33:27.830Z,12.00
2018-04-23T04:35:55.440Z,12.00
2018-04-23T04:38:23.104Z,12.00
2018-04-23T04:40:50.698Z,12.10
2018-04-23T04:43:18.322Z,12.10
2018-04-23T04:45:45.935Z,12.10
2018-04-23T04:48:15.096Z,12.20
2018-04-23T04:50:42.712Z,12.20
2018-04-23T04:53:10.428Z,12.30
2018-04-23T04:55:38.135Z,12.30
2018-04-23T04:58:06.444Z,12.40
2018-04-23T05:00:34.025Z,12.40
2018-04-23T05:03:01.675Z,12.40
2018-04-23T05:05:29.375Z,12.50
2018-04-23T05:07:57.802Z,12.60
2018-04-23T05:10:25.449Z,12.40
2018-04-23T05:12:54.074Z,12.70
2018-04-23T05:15:26.181Z,12.70
2018-04-23T05:17:57.489Z,12.90
2018-04-23T05:20:25.387Z,13.00
2018-04-23T05:23:00.237Z,13.10
2018-04-23T05:25:31.025Z,13.20
2018-04-23T05:28:03.609Z,13.30
2018-04-23T05:30:39.301Z,13.40
2018-04-23T05:33:13.796Z,13.40
2018-04-23T05:35:43.917Z,13.50
2018-04-23T05:38:13.480Z,13.70
2018-04-23T05:40:41.252Z,13.70
2018-04-23T05:43:11.679Z,13.80
2018-04-23T05:45:39.430Z,13.90
2018-04-23T05:48:10.856Z,14.00
2018-04-23T05:50:39.760Z,14.10
2018-04-23T05:53:07.824Z,14.10
2018-04-23T05:55:37.373Z,14.10
2018-04-23T05:58:06.010Z,14.10
2018-04-23T06:00:33.789Z,14.00
2018-04-23T06:03:02.152Z,14.00
2018-04-23T06:05:30.799Z,14.20
2018-04-23T06:07:59.631Z,14.20
2018-04-23T06:10:27.493Z,14.40
2018-04-23T06:12:55.129Z,14.50
2018-04-23T06:15:22.820Z,14.60
2018-04-23T06:17:51.430Z,14.80
2018-04-23T06:20:19.237Z,15.00
2018-04-23T06:22:47.705Z,15.20
2018-04-23T06:25:16.134Z,15.50
2018-04-23T06:27:43.789Z,15.50
2018-04-23T06:30:11.386Z,15.80
2018-04-23T06:32:39.808Z,16.30
2018-04-23T06:35:07.408Z,16.30
2018-04-23T06:37:35.546Z,16.50
2018-04-23T06:40:03.238Z,16.40
2018-04-23T06:42:31.670Z,16.70
2018-04-23T06:45:00.571Z,16.70
2018-04-23T06:47:28.229Z,16.70
2018-04-23T06:49:55.829Z,16.90
2018-04-23T06:52:24.248Z,17.10
2018-04-23T06:54:51.871Z,17.00
2018-04-23T06:57:19.508Z,17.40
2018-04-23T06:59:47.183Z,18.00
2018-04-23T07:02:14.840Z,18.60
2018-04-23T07:04:42.602Z,18.90
2018-04-23T07:07:10.788Z,19.70
2018-04-23T07:09:38.493Z,20.20
2018-04-23T07:12:06.171Z,20.50
2018-04-23T07:14:33.836Z,21.50
2018-04-23T07:17:01.486Z,21.30
2018-04-23T07:19:29.959Z,21.80
2018-04-23T07:21:57.645Z,21.80
2018-04-23T07:24:25.360Z,22.20
2018-04-23T07:26:53.399Z,21.60
2018-04-23T07:29:21.120Z,21.10
2018-04-23T07:31:49.323Z,21.50
2018-04-23T07:34:17.043Z,21.30
2018-04-23T07:36:45.098Z,21.40
2018-04-23T07:39:12.760Z,21.70
2018-04-23T07:41:40.440Z,22.30
2018-04-23T07:44:08.194Z,22.50
2018-04-23T07:46:36.146Z,22.60
2018-04-23T07:49:04.653Z,22.70
2018-04-23T07:51:32.895Z,22.70
2018-04-23T07:54:01.361Z,23.40
2018-04-23T07:56:29.374Z,23.40
2018-04-23T07:58:57.067Z,24.20
2018-04-23T08:01:24.740Z,24.10
2018-04-23T08:03:52.497Z,24.10
2018-04-23T08:06:20.148Z,25.00
2018-04-23T08:08:47.767Z,25.20
2018-04-23T08:11:16.240Z,24.20
2018-04-23T08:13:44.647Z,23.60
2018-04-23T08:16:12.220Z,23.60
2018-04-23T08:18:39.838Z,24.30
2018-04-23T08:21:07.560Z,25.20
2018-04-23T08:23:35.210Z,25.70
2018-04-23T08:26:02.888Z,24.80
2018-04-23T08:28:30.549Z,24.70
2018-04-23T08:30:58.221Z,24.10
2018-04-23T08:33:26.648Z,23.90
2018-04-23T08:35:54.291Z,23.90
2018-04-23T08:38:21.984Z,23.70
2018-04-23T08:40:49.587Z,24.50
2018-04-23T08:43:17.292Z,24.50
2018-04-23T08:45:44.945Z,24.70
2018-04-23T08:48:12.579Z,24.60
2018-04-23T08:50:41.003Z,24.70
2018-04-23T08:53:08.692Z,24.90
2018-04-23T08:55:36.352Z,24.90
2018-04-23T08:58:04.168Z,25.00
2018-04-23T09:00:31.896Z,25.30
2018-04-23T09:02:59.642Z,25.20
2018-04-23T09:05:27.317Z,25.30
2018-04-23T09:07:54.976Z,25.70
2018-04-23T09:10:23.668Z,25.40
2018-04-23T09:12:51.355Z,25.70
2018-04-23T09:15:19.090Z,25.40
2018-04-23T09:17:47.038Z,25.70
2018-04-23T09:20:14.717Z,25.00
2018-04-23T09:22:44.102Z,24.80
2018-04-23T09:25:12.815Z,25.70
2018-04-23T09:27:40.663Z,25.40
2018-04-23T09:30:08.382Z,24.70
2018-04-23T09:32:36.175Z,24.30
2018-04-23T09:35:03.848Z,24.40
2018-04-23T09:37:31.594Z,24.70
2018-04-23T09:39:59.218Z,24.80
2018-04-23T09:42:26.859Z,24.70
2018-04-23T09:44:55.293Z,24.00
2018-04-23T09:47:23.865Z,23.90
2018-04-23T09:49:51.559Z,24.00
2018-04-23T09:52:19.218Z,24.30
2018-04-23T09:54:46.889Z,24.50
2018-04-23T09:57:14.560Z,24.60
2018-04-23T09:59:42.266Z,24.10
2018-04-23T10:02:09.929Z,24.20
2018-04-23T10:04:37.661Z,24.00
2018-04-23T10:07:05.303Z,24.10
2018-04-23T10:09:32.969Z,24.30
2018-04-23T10:12:01.364Z,24.40
2018-04-23T10:14:29.189Z,24.40
2018-04-23T10:16:56.837Z,24.70
2018-04-23T10:19:24.565Z,24.70
2018-04-23T10:21:58.789Z,24.50
2018-04-23T10:24:27.635Z,24.60
2018-04-23T10:26:55.290Z,24.60
2018-04-23T10:29:23.004Z,24.70
2018-04-23T10:31:50.656Z,24.70
2018-04-23T10:34:18.278Z,24.60
2018-04-23T10:36:46.774Z,24.70
2018-04-23T10:39:14.543Z,24.70
2018-04-23T10:41:42.911Z,24.60
2018-04-23T10:44:11.305Z,25.70
2018-04-23T10:46:39.073Z,25.60
2018-04-23T10:49:07.861Z,25.80
2018-04-23T10:51:36.341Z,25.70
2018-04-23T10:54:04.100Z,26.20
2018-04-23T10:56:31.692Z,26.30
2018-04-23T10:58:59.398Z,26.70
2018-04-23T11:01:27.121Z,27.20
2018-04-23T11:03:55.557Z,28.00
2018-04-23T11:06:24.254Z,27.10
2018-04-23T11:08:52.741Z,28.40
2018-04-23T11:11:21.762Z,28.30
2018-04-23T11:13:49.995Z,28.90
2018-04-23T11:16:18.764Z,29.70
2018-04-23T11:18:48.634Z,30.20
2018-04-23T11:21:17.380Z,29.40
2018-04-23T11:23:45.386Z,28.60
2018-04-23T11:26:13.202Z,28.30
2018-04-23T11:28:40.976Z,28.20
2018-04-23T11:31:09.638Z,27.90
2018-04-23T11:33:38.243Z,28.50
2018-04-23T11:36:06.001Z,28.50
2018-04-23T11:38:33.665Z,29.20
2018-04-23T11:41:01.282Z,28.90
2018-04-23T11:43:28.922Z,29.50
2018-04-23T11:45:56.530Z,29.20
2018-04-23T11:48:24.905Z,28.80
2018-04-23T11:50:52.533Z,28.80
2018-04-23T11:53:20.187Z,28.70
2018-04-23T11:55:47.840Z,28.60
2018-04-23T11:58:15.465Z,29.10
2018-04-23T12:00:43.181Z,28.10
2018-04-23T12:03:10.823Z,28.00
2018-04-23T12:05:38.473Z,27.90
2018-04-23T12:08:06.064Z,27.10
2018-04-23T12:10:33.761Z,26.40
2018-04-23T12:13:01.373Z,26.10
2018-04-23T12:15:28.996Z,25.70
2018-04-23T12:17:56.612Z,25.50
2018-04-23T12:20:25.023Z,25.40
2018-04-23T12:22:52.673Z,25.10
2018-04-23T12:25:20.323Z,25.30
2018-04-23T12:27:48.728Z,25.90
2018-04-23T12:30:16.340Z,25.90
2018-04-23T12:32:43.931Z,26.60
2018-04-23T12:35:11.586Z,27.60
2018-04-23T12:37:39.949Z,28.50
2018-04-23T12:40:07.574Z,28.50
2018-04-23T12:42:36.191Z,28.40
2018-04-23T12:45:04.687Z,27.30
2018-04-23T12:47:33.053Z,26.70
2018-04-23T12:50:01.580Z,26.70
2018-04-23T12:52:29.268Z,26.20
2018-04-23T12:54:56.942Z,25.60
2018-04-23T12:57:24.656Z,25.30
2018-04-23T12:59:52.341Z,24.90
2018-04-23T13:02:20.003Z,24.60
2018-04-23T13:04:47.605Z,24.40
2018-04-23T13:07:15.994Z,23.80
2018-04-23T13:09:44.378Z,23.70
2018-04-23T13:12:12.008Z,23.70
2018-04-23T13:14:39.633Z,23.70
2018-04-23T13:17:07.273Z,23.80
2018-04-23T13:19:34.944Z,23.90
2018-04-23T13:22:02.544Z,24.30
2018-04-23T13:24:30.268Z,24.30
2018-04-23T13:26:57.900Z,24.40
2018-04-23T13:29:25.573Z,24.90
2018-04-23T13:31:53.227Z,25.80
2018-04-23T13:34:20.997Z,26.00
2018-04-23T13:36:48.734Z,26.10
2018-04-23T13:39:16.360Z,25.70
2018-04-23T13:41:44.084Z,25.90
2018-04-23T13:44:11.756Z,25.80
2018-04-23T13:46:39.478Z,26.10
2018-04-23T13:49:09.413Z,25.60
2018-04-23T13:51:37.093Z,25.50
2018-04-23T13:54:04.863Z,25.20
2018-04-23T13:56:32.693Z,24.60
2018-04-23T13:59:00.305Z,24.30
2018-04-23T14:01:28.027Z,24.40
2018-04-23T14:03:55.733Z,24.20
2018-04-23T14:06:23.428Z,24.10
2018-04-23T14:08:51.267Z,24.00
2018-04-23T14:11:19.818Z,23.90
2018-04-23T14:13:47.554Z,23.90
2018-04-23T14:16:15.156Z,23.80
2018-04-23T14:18:42.841Z,23.80
2018-04-23T14:21:10.482Z,23.50
2018-04-23T14:23:38.158Z,23.20
2018-04-23T14:26:05.826Z,23.30
2018-04-23T14:28:34.233Z,23.20
2018-04-23T14:31:02.788Z,23.20
2018-04-23T14:33:30.443Z,23.10
2018-04-23T14:35:58.874Z,22.90
2018-04-23T14:38:26.755Z,22.90
2018-04-23T14:40:54.493Z,22.70
2018-04-23T14:43:22.120Z,22.70
2018-04-23T14:45:50.606Z,22.40
2018-04-23T14:48:19.118Z,21.70
2018-04-23T14:50:46.827Z,22.30
2018-04-23T14:53:14.442Z,22.20
2018-04-23T14:55:42.131Z,22.10
2018-04-23T14:58:10.833Z,21.90
2018-04-23T15:00:38.559Z,21.50
2018-04-23T15:03:06.428Z,21.40
2018-04-23T15:05:34.120Z,21.40
2018-04-23T15:08:01.736Z,21.50
2018-04-23T15:10:29.409Z,21.30
2018-04-23T15:12:57.140Z,21.00
2018-04-23T15:15:24.767Z,20.80
2018-04-23T15:17:52.431Z,20.80
2018-04-23T15:20:20.144Z,20.60
2018-04-23T15:22:47.816Z,20.60
2018-04-23T15:25:15.442Z,20.30
2018-04-23T15:27:43.260Z,20.20
2018-04-23T15:30:10.934Z,20.30
2018-04-23T15:32:38.575Z,20.30
2018-04-23T15:35:06.248Z,20.40
2018-04-23T15:37:36.190Z,20.40
2018-04-23T15:40:04.900Z,20.30
2018-04-23T15:42:32.773Z,20.20
2018-04-23T15:45:00.488Z,20.30
2018-04-23T15:47:29.513Z,20.20
2018-04-23T15:49:57.183Z,20.20
2018-04-23T15:52:24.944Z,20.20
2018-04-23T15:54:52.553Z,20.20
2018-04-23T15:57:20.385Z,20.00
2018-04-23T15:59:48.011Z,20.00
2018-04-23T16:02:17.953Z,19.80
2018-04-23T16:04:45.710Z,19.60
2018-04-23T16:07:13.464Z,19.50
2018-04-23T16:09:41.168Z,19.30
2018-04-23T16:12:09.797Z,19.10
2018-04-23T16:14:38.211Z,19.10
2018-04-23T16:17:07.346Z,19.10
2018-04-23T16:19:38.370Z,19.00
2018-04-23T16:22:06.069Z,18.90
2018-04-23T16:24:34.547Z,18.80
2018-04-23T16:27:02.964Z,18.70
2018-04-23T16:29:30.588Z,18.70
2018-04-23T16:31:58.473Z,18.50
2018-04-23T16:34:26.144Z,18.50
2018-04-23T16:36:53.867Z,18.50
2018-04-23T16:39:21.542Z,18.40
2018-04-23T16:41:50.114Z,18.30
2018-04-23T16:44:17.884Z,18.30
2018-04-23T16:46:46.520Z,18.30
2018-04-23T16:49:15.066Z,18.30
2018-04-23T16:51:42.821Z,18.20
2018-04-23T16:54:10.520Z,18.10
2018-04-23T16:56:38.354Z,18.00
2018-04-23T16:59:07.493Z,17.90
2018-04-23T17:01:35.959Z,17.90
2018-04-23T17:04:03.785Z,17.90
2018-04-23T17:06:32.155Z,17.90
2018-04-23T17:08:59.903Z,17.90
2018-04-23T17:11:27.640Z,17.90
2018-04-23T17:13:56.105Z,17.90
2018-04-23T17:16:23.727Z,17.90
2018-04-23T17:18:52.212Z,17.90
2018-04-23T17:21:19.907Z,17.90
2018-04-23T17:23:47.636Z,17.90
2018-04-23T17:26:16.192Z,17.90
2018-04-23T17:28:44.588Z,18.00
2018-04-23T17:31:13.072Z,18.00
2018-04-23T17:33:41.534Z,17.90
2018-04-23T17:36:09.289Z,17.90
2018-04-23T17:38:37.012Z,17.90
2018-04-23T17:41:04.685Z,17.80
2018-04-23T17:43:32.355Z,17.80
2018-04-23T17:46:00.120Z,17.80
2018-04-23T17:48:28.379Z,17.70
2018-04-23T17:50:56.091Z,17.60
2018-04-23T17:53:23.748Z,17.50
2018-04-23T17:55:52.201Z,17.30
2018-04-23T17:58:19.887Z,17.30
2018-04-23T18:00:47.754Z,17.20
2018-04-23T18:03:16.296Z,16.90
2018-04-23T18:05:44.911Z,16.90
2018-04-23T18:08:12.661Z,16.70
2018-04-23T18:10:40.394Z,16.60
2018-04-23T18:13:08.122Z,16.50
2018-04-23T18:15:35.763Z,16.40
2018-04-23T18:18:03.446Z,16.30
2018-04-23T18:20:31.139Z,16.30
2018-04-23T18:22:58.821Z,16.20
2018-04-23T18:25:27.277Z,16.20
2018-04-23T18:27:54.968Z,16.20
2018-04-23T18:30:22.642Z,16.10
2018-04-23T18:32:50.292Z,16.00
2018-04-23T18:35:18.870Z,16.00
2018-04-23T18:37:46.588Z,16.00
2018-04-23T18:40:14.194Z,16.00
2018-04-23T18:42:41.840Z,16.00
2018-04-23T18:45:09.453Z,15.90
2018-04-23T18:47:37.017Z,15.90
2018-04-23T18:50:05.413Z,15.90
2018-04-23T18:52:33.044Z,15.90
2018-04-23T18:55:00.701Z,15.90
2018-04-23T18:57:29.088Z,16.00
2018-04-23T18:59:57.532Z,16.00
2018-04-23T19:02:25.166Z,16.00
2018-04-23T19:04:52.832Z,16.00
2018-04-23T19:07:20.575Z,16.00
2018-04-23T19:09:48.233Z,16.00
2018-04-23T19:12:15.846Z,16.10
2018-04-23T19:14:43.474Z,16.00
2018-04-23T19:17:11.664Z,15.90
2018-04-23T19:19:39.254Z,15.90
2018-04-23T19:22:07.745Z,15.80
2018-04-23T19:24:36.776Z,15.60
2018-04-23T19:27:04.446Z,15.50
2018-04-23T19:29:32.182Z,15.50
2018-04-23T19:31:59.814Z,15.40
2018-04-23T19:34:28.170Z,15.30
2018-04-23T19:36:55.849Z,15.20
2018-04-23T19:39:23.501Z,15.30
2018-04-23T19:41:51.184Z,15.30
2018-04-23T19:44:19.543Z,15.30
2018-04-23T19:46:47.202Z,15.30
2018-04-23T19:49:14.872Z,15.20
2018-04-23T19:51:42.509Z,15.20
2018-04-23T19:54:10.226Z,15.20
2018-04-23T19:56:37.860Z,15.10
2018-04-23T19:59:06.245Z,15.10
2018-04-23T20:01:33.924Z,15.10
2018-04-23T20:04:01.620Z,15.10
2018-04-23T20:06:29.303Z,15.10
2018-04-23T20:08:58.512Z,15.20
2018-04-23T20:11:26.265Z,15.10
2018-04-23T20:13:53.914Z,15.20
2018-04-23T20:16:21.521Z,15.20
2018-04-23T20:18:49.967Z,15.20
2018-04-23T20:21:17.620Z,15.20
2018-04-23T20:23:45.253Z,15.20
2018-04-23T20:26:12.868Z,15.20
2018-04-23T20:28:41.316Z,15.20
2018-04-23T20:31:08.912Z,15.20
2018-04-23T20:33:37.403Z,15.10
2018-04-23T20:36:05.034Z,15.10
2018-04-23T20:38:32.736Z,15.10
2018-04-23T20:41:00.356Z,15.20
2018-04-23T20:43:27.976Z,15.20
2018-04-23T20:45:55.570Z,15.20
2018-04-23T20:48:23.184Z,15.20
2018-04-23T20:50:50.822Z,15.20
2018-04-23T20:53:18.447Z,15.20
2018-04-23T20:55:46.037Z,15.20
2018-04-23T20:58:14.422Z,15.20
2018-04-23T21:00:42.015Z,15.20
2018-04-23T21:03:09.688Z,15.20
2018-04-23T21:05:37.305Z,15.20
2018-04-23T21:08:04.928Z,15.20
2018-04-23T21:10:32.696Z,15.20
2018-04-23T21:13:00.355Z,15.20
2018-04-23T21:15:28.035Z,15.20
2018-04-23T21:17:56.440Z,15.20
2018-04-23T21:20:24.214Z,15.20
2018-04-23T21:22:51.919Z,15.00
2018-04-23T21:25:19.587Z,15.20
2018-04-23T21:27:47.250Z,15.20
2018-04-23T21:30:14.904Z,15.10
2018-04-23T21:32:42.547Z,15.10
2018-04-23T21:35:10.236Z,15.10
2018-04-23T21:37:38.682Z,15.00
2018-04-23T21:40:06.398Z,15.00
2018-04-23T21:42:34.026Z,15.00
2018-04-23T21:45:01.707Z,15.00
2018-04-23T21:47:29.345Z,14.90
2018-04-23T21:49:57.059Z,14.90
2018-04-23T21:52:24.672Z,14.90
2018-04-23T21:54:52.359Z,14.80
2018-04-23T21:57:20.822Z,14.70
2018-04-23T21:59:48.438Z,14.70
2018-04-23T22:02:16.112Z,14.70
2018-04-23T22:04:43.733Z,14.60
2018-04-23T22:07:12.454Z,14.60
2018-04-23T22:09:40.093Z,14.60
2018-04-23T22:12:07.744Z,14.60
2018-04-23T22:14:35.470Z,14.50
2018-04-23T22:17:03.925Z,14.50
2018-04-23T22:19:31.597Z,14.50
2018-04-23T22:21:59.236Z,14.50
2018-04-23T22:24:26.892Z,14.50
2018-04-23T22:26:54.554Z,14.50
2018-04-23T22:29:22.769Z,14.50
2018-04-23T22:31:50.439Z,14.50
2018-04-23T22:34:18.852Z,14.50
2018-04-23T22:36:46.483Z,14.40
2018-04-23T22:39:14.152Z,14.50
2018-04-23T22:41:41.834Z,14.50
2018-04-23T22:44:09.490Z,14.50
2018-04-23T22:46:37.843Z,14.60
2018-04-23T22:49:06.296Z,14.70
2018-04-23T22:51:33.956Z,14.60
2018-04-23T22:54:01.616Z,14.60
2018-04-23T22:56:29.235Z,14.60
2018-04-23T22:58:56.921Z,14.50
2018-04-23T23:01:24.571Z,14.50
2018-04-23T23:03:53.099Z,14.40
2018-04-23T23:06:21.475Z,14.40
2018-04-23T23:08:49.939Z,14.30
2018-04-23T23:11:17.949Z,14.30
2018-04-23T23:13:45.590Z,14.30
2018-04-23T23:16:14.003Z,14.20
2018-04-23T23:18:41.674Z,14.20
2018-04-23T23:21:09.901Z,14.20
2018-04-23T23:23:38.267Z,14.10
2018-04-23T23:26:06.673Z,14.10
2018-04-23T23:28:34.308Z,14.10
2018-04-23T23:31:01.975Z,14.10
2018-04-23T23:33:30.373Z,14.10
2018-04-23T23:35:58.032Z,14.10
2018-04-23T23:38:25.650Z,14.10
2018-04-23T23:40:53.279Z,14.20
2018-04-23T23:43:20.928Z,14.20
2018-04-23T23:45:48.616Z,14.20
2018-04-23T23:48:16.236Z,14.20
2018-04-23T23:50:44.675Z,14.20
2018-04-23T23:53:16.517Z,14.20
2018-04-23T23:55:44.156Z,14.20
2018-04-23T23:58:11.792Z,14.20
